Tropical Cyclones
[Index]
Main Index Home Page Stock Weather Photos Extreme Storms Discussion Storm News and Storm Chasing Reports Tropical Cyclones / Hurricanes / Typhoons Weather Data and Links Wild Fires / Bushfires Weather Observation Techniques Weather Picture Catalogue Tornado Pictures and Reports Stock Video Footage and DVDs for sale
Season 1970-1971 Tropical Cyclone IDA Track Map
Season 1970-1971 Summaries: [BoM-AU] [JTWC-AU] [JTWC-SIO] [JTWC-SPAC] [JTWC-SH]
<<- Previous TC | BoM 1970-1971 Season | Next TC ->>

click for intensity scale information  Lat/long Grid: Show Hide

 Date Labels: Show Hide

Bureau of Meteorology Tropical Cyclone Data

Name: IDA
Number: 476 / 197071_15

15 Feb 1971 23:00 UTC to 20 Feb 1971 23:00 UTC

    date/time    lat    long    hPa   cat  kts
1971-02-15 23   17.0   155.2   1004                     
1971-02-16 02   17.4   155.7   1003                     
1971-02-16 08   16.7   157.1    999                     
1971-02-16 11   17.4   157.3   1000                     
1971-02-16 14   17.5   156.9    998                     
1971-02-16 17   17.3   156.5    997                     
1971-02-16 20   16.7   156.5    995    1                
1971-02-16 23   16.7   157.2    990    1                
1971-02-17 05   17.6   157.7    984    2                
1971-02-17 11   18.3   158.1    980    2                
1971-02-17 17   18.0   158.6    980    2                
1971-02-17 20   18.3   159.2    983    2                
1971-02-17 23   19.0   159.6    985    2                
1971-02-18 11   20.6   160.9    991    1                
1971-02-18 23   21.6   161.7    992    1                
1971-02-19 11   22.4   162.3    993    1                
1971-02-19 23   22.8   162.6    995    1                
1971-02-20 11   23.6   163.3    996                     
1971-02-20 17   24.4   164.0    995    1                
1971-02-20 23   25.0   165.0    995    1                
Winds are 10-min average.

Tropical cyclone tracks developed by Michael Bath using data from the Bureau of Meteorology and Google Maps.


[Australian Severe Weather index] [Copyright Notice] [Email Contacts] [Search This Site] [Privacy Policy]
Document: tropical_cyclone_ida.htm Updated: 30 May 2013